Contact Us:
Email: info@sawbill.com
Phone: (218)663-7150
Fax: (218)663-7980
Mail: 4620 Sawbill Trail
Box 2129
Tofte, MN 55615


Powered by
Movable Type 3.15
 
Sawbill Weather History Archives: April 2011
Current Sawbill Weather History | « March 2011 | May 2011 »


Date

High
Temperature

Low
Temperature

Barometric
Pressure

Relative
Humidity 7AM

9 AM
Temperature

Moisture

Snow

4/30/11 48 34 29.35 81% 35 .71" Trace
4/29/11 57 28 29.62 56% 42 0
4/28/11 51 28 29.74 75% 28 0
4/27/11 34 28 29.50 79% 32 .13" 1"
4/26/11 47 28 29.50 85% 28 .27" 3"
4/25/11 61 40 29.65 57% 40 0
4/24/11 55 38 29.74 52% 42 Trace
4/23/11 44 32 29.58 78% 38 0
4/22/11 42 32 29.47 87% 32 .48" 4"
4/21/11 47 29 29.94 72% 34 0
4/20/11 39 27 30.03 84% 29 0
4/19/11 38 16 29.85 54% 28 0
4/18/11 35 14 29.91 67% 16 0
4/17/11 32 14 29.82 80% 14 0
4/16/11 30 20 29.41 77% 20 .26" 3"
4/15/11 39 23 29.50 76% 28 .15" 2"
4/14/11 38 19 30.18 51% 23 0
4/13/11 47 19 30.24 51% 19 0
4/12/11 60 30 29.91 65% 37 0
4/11/11 53 36 29.74 65% 36 0
4/10/11 47 38 29.44 98% 39 .24"
4/9/11 56 36 29.41 98% 41 .01"
4/8/11 55 35 29.77 73% 39 0
4/7/11 50 26 29.85 79% 36 0
4/6/11 41 23 29.83 78% 26 0
4/5/11 40 22 29.62 77% 23 0
4/4/11 33 21 29.47 81% 26 0
4/3/11 33 31 29.32 98% 32 .4" 4"
4/2/11 41 30 29.59 87% 32 .11" .5"
4/1/11 35 29 29.56 92% 33 .04" .5"
 


Home I Trip Planning I Rentals and Outfitting I Reservations I Campgrounds I Sawbill Store I Sawbill News I Contact

© 1997 - 2017, Sawbill Canoe Outfitters, Inc. I Privacy Policy